createdAt,value
2023-05-15T00:00:23.166Z,17.83
2023-05-15T00:05:01.337Z,17.82
2023-05-15T00:09:19.082Z,17.73
2023-05-15T00:13:38.663Z,17.82
2023-05-15T00:17:56.406Z,17.81
2023-05-15T00:22:13.932Z,17.77
2023-05-15T00:26:33.119Z,17.76
2023-05-15T00:30:52.079Z,17.79
2023-05-15T00:35:09.897Z,17.81
2023-05-15T00:39:27.505Z,17.77
2023-05-15T00:43:45.401Z,17.70
2023-05-15T00:48:03.810Z,17.78
2023-05-15T00:52:22.385Z,17.75
2023-05-15T00:56:40.493Z,17.75
2023-05-15T01:00:58.309Z,17.73
2023-05-15T01:05:15.984Z,17.70
2023-05-15T01:09:36.691Z,17.77
2023-05-15T01:13:55.410Z,17.76
2023-05-15T01:18:13.147Z,17.66
2023-05-15T01:22:47.183Z,17.71
2023-05-15T01:27:24.945Z,17.72
2023-05-15T01:31:48.743Z,17.70
2023-05-15T01:36:18.457Z,17.67
2023-05-15T01:40:36.480Z,17.78
2023-05-15T01:44:55.752Z,17.72
2023-05-15T01:49:16.369Z,17.70
2023-05-15T01:53:35.457Z,17.72
2023-05-15T01:57:53.834Z,17.74
2023-05-15T02:02:12.156Z,17.67
2023-05-15T02:06:30.896Z,17.68
2023-05-15T02:10:49.688Z,17.65
2023-05-15T02:15:10.819Z,17.71
2023-05-15T02:19:28.444Z,17.69
2023-05-15T02:23:46.806Z,17.67
2023-05-15T02:28:07.946Z,17.71
2023-05-15T02:33:05.180Z,17.74
2023-05-15T02:37:30.481Z,17.71
2023-05-15T02:41:48.706Z,17.63
2023-05-15T02:46:07.825Z,17.71
2023-05-15T02:50:25.792Z,17.72
2023-05-15T02:54:43.670Z,17.68
2023-05-15T02:59:02.739Z,17.65
2023-05-15T03:03:20.245Z,17.66
2023-05-15T03:07:37.936Z,17.71
2023-05-15T03:11:55.486Z,17.69
2023-05-15T03:16:13.084Z,17.63
2023-05-15T03:20:30.594Z,17.66
2023-05-15T03:24:49.226Z,17.70
2023-05-15T03:29:06.734Z,17.71
2023-05-15T03:33:24.594Z,17.74
2023-05-15T03:37:42.476Z,17.75
2023-05-15T03:42:00.117Z,17.71
2023-05-15T03:46:17.673Z,17.72
2023-05-15T03:50:35.287Z,17.68
2023-05-15T03:54:52.948Z,17.74
2023-05-15T03:59:10.634Z,17.74
2023-05-15T04:03:28.156Z,17.73
2023-05-15T04:07:46.192Z,17.77
2023-05-15T04:12:03.918Z,17.82
2023-05-15T04:16:21.753Z,17.80
2023-05-15T04:20:39.329Z,17.81
2023-05-15T04:24:57.193Z,17.73
2023-05-15T04:29:14.690Z,17.85
2023-05-15T04:33:32.668Z,17.87
2023-05-15T04:37:50.161Z,17.88
2023-05-15T04:42:08.098Z,17.85
2023-05-15T04:46:25.674Z,17.94
2023-05-15T04:50:43.370Z,17.99
2023-05-15T04:55:00.996Z,18.05
2023-05-15T04:59:18.816Z,18.15
2023-05-15T05:03:36.461Z,18.26
2023-05-15T05:07:54.485Z,18.29
2023-05-15T05:12:12.217Z,18.26
2023-05-15T05:16:30.179Z,18.15
2023-05-15T05:20:47.955Z,18.04
2023-05-15T05:25:07.544Z,18.11
2023-05-15T05:29:25.853Z,18.14
2023-05-15T05:33:43.653Z,18.13
2023-05-15T05:38:01.290Z,18.13
2023-05-15T05:42:18.928Z,18.26
2023-05-15T05:46:36.585Z,18.25
2023-05-15T05:50:55.255Z,18.26
2023-05-15T05:55:12.886Z,18.28
2023-05-15T05:59:30.976Z,18.21
2023-05-15T06:03:48.945Z,18.18
2023-05-15T06:08:07.110Z,18.15
2023-05-15T06:12:24.562Z,18.11
2023-05-15T06:16:42.523Z,18.28
2023-05-15T06:21:18.107Z,18.36
2023-05-15T06:25:36.555Z,18.31
2023-05-15T06:29:54.074Z,18.34
2023-05-15T06:34:12.523Z,18.44
2023-05-15T06:38:30.035Z,18.42
2023-05-15T06:42:47.634Z,18.40
2023-05-15T06:47:06.091Z,18.42
2023-05-15T06:51:23.917Z,18.79
2023-05-15T06:55:41.484Z,18.65
2023-05-15T06:59:59.191Z,18.51
2023-05-15T07:04:16.891Z,18.50
2023-05-15T07:08:34.737Z,18.73
2023-05-15T07:12:52.324Z,18.64
2023-05-15T07:17:10.123Z,18.47
2023-05-15T07:21:27.666Z,18.47
2023-05-15T07:25:46.086Z,18.69
2023-05-15T07:30:05.153Z,18.68
2023-05-15T07:34:23.987Z,18.37
2023-05-15T07:38:41.547Z,18.31
2023-05-15T07:42:59.165Z,18.40
2023-05-15T07:47:17.708Z,18.17
2023-05-15T07:51:36.154Z,18.37
2023-05-15T07:55:53.859Z,18.47
2023-05-15T08:00:13.134Z,18.44
2023-05-15T08:04:30.822Z,18.46
2023-05-15T08:08:48.705Z,18.48
2023-05-15T08:13:06.279Z,18.63
2023-05-15T08:17:25.555Z,18.40
2023-05-15T08:21:43.175Z,18.26
2023-05-15T08:26:01.724Z,18.18
2023-05-15T08:30:19.216Z,18.25
2023-05-15T08:34:37.346Z,18.43
2023-05-15T08:38:54.827Z,18.43
2023-05-15T08:43:16.010Z,18.25
2023-05-15T08:47:38.791Z,18.19
2023-05-15T08:51:56.892Z,18.33
2023-05-15T08:56:14.867Z,18.27
2023-05-15T09:00:33.293Z,18.24
2023-05-15T09:04:51.013Z,18.25
2023-05-15T09:09:09.843Z,18.32
2023-05-15T09:13:27.767Z,18.30
2023-05-15T09:17:46.270Z,18.37
2023-05-15T09:22:24.496Z,18.43
2023-05-15T09:26:43.245Z,18.54
2023-05-15T09:31:04.064Z,18.48
2023-05-15T09:35:37.105Z,18.49
2023-05-15T09:39:54.841Z,18.64
2023-05-15T09:44:21.897Z,18.80
2023-05-15T09:48:40.223Z,18.60
2023-05-15T09:53:00.366Z,18.51
2023-05-15T09:57:23.824Z,18.62
2023-05-15T10:01:45.267Z,18.62
2023-05-15T10:06:05.084Z,18.80
2023-05-15T10:10:23.465Z,18.67
2023-05-15T10:14:41.609Z,18.72
2023-05-15T10:18:59.289Z,18.70
2023-05-15T10:23:19.076Z,18.73
2023-05-15T10:27:39.020Z,19.17
2023-05-15T10:31:57.657Z,19.09
2023-05-15T10:36:17.497Z,18.98
2023-05-15T10:40:40.394Z,18.82
2023-05-15T10:45:01.454Z,18.69
2023-05-15T10:49:19.025Z,18.41
2023-05-15T10:53:36.850Z,18.63
2023-05-15T10:57:55.154Z,18.75
2023-05-15T11:02:26.751Z,18.65
2023-05-15T11:06:50.194Z,18.62
2023-05-15T11:11:08.155Z,18.60
2023-05-15T11:15:25.656Z,18.74
2023-05-15T11:20:03.805Z,18.64
2023-05-15T11:24:22.713Z,18.87
2023-05-15T11:28:47.466Z,19.39
2023-05-15T11:33:11.629Z,18.87
2023-05-15T11:37:30.017Z,22.30
2023-05-15T11:41:48.147Z,19.87
2023-05-15T11:46:10.886Z,19.29
2023-05-15T11:50:29.789Z,18.90
2023-05-15T11:54:47.984Z,22.34
2023-05-15T11:59:05.841Z,20.13
2023-05-15T12:03:32.951Z,19.11
2023-05-15T12:07:50.640Z,18.78
2023-05-15T12:12:14.657Z,18.84
2023-05-15T12:16:33.233Z,19.39
2023-05-15T12:20:55.015Z,19.25
2023-05-15T12:25:15.332Z,20.69
2023-05-15T12:29:33.169Z,20.82
2023-05-15T12:33:53.347Z,25.01
2023-05-15T12:38:16.773Z,25.00
2023-05-15T12:42:40.306Z,21.52
2023-05-15T12:46:58.772Z,19.34
2023-05-15T12:51:18.167Z,18.87
2023-05-15T12:55:40.255Z,18.69
2023-05-15T12:59:57.885Z,18.62
2023-05-15T13:04:16.919Z,18.65
2023-05-15T13:08:41.671Z,18.63
2023-05-15T13:13:00.008Z,18.58
2023-05-15T13:17:17.558Z,18.85
2023-05-15T13:21:35.448Z,24.24
2023-05-15T13:25:52.852Z,23.20
2023-05-15T13:30:11.576Z,24.93
2023-05-15T13:34:29.036Z,27.58
2023-05-15T13:38:47.501Z,20.97
2023-05-15T13:43:06.964Z,19.31
2023-05-15T13:47:24.640Z,19.21
2023-05-15T13:51:42.266Z,19.11
2023-05-15T13:55:59.863Z,19.52
2023-05-15T14:00:17.705Z,20.20
2023-05-15T14:04:35.485Z,23.33
2023-05-15T14:08:53.036Z,19.93
2023-05-15T14:13:11.880Z,20.99
2023-05-15T14:17:29.503Z,19.29
2023-05-15T14:21:47.283Z,19.11
2023-05-15T14:26:04.873Z,19.51
2023-05-15T14:30:23.456Z,19.71
2023-05-15T14:34:41.722Z,19.03
2023-05-15T14:39:00.607Z,18.88
2023-05-15T14:43:18.483Z,19.32
2023-05-15T14:47:36.014Z,19.77
2023-05-15T14:51:53.662Z,19.86
2023-05-15T14:56:11.170Z,19.35
2023-05-15T15:00:28.963Z,19.35
2023-05-15T15:04:46.391Z,19.13
2023-05-15T15:09:04.688Z,19.44
2023-05-15T15:13:22.279Z,19.34
2023-05-15T15:17:39.953Z,18.91
2023-05-15T15:21:57.501Z,18.81
2023-05-15T15:26:16.024Z,18.83
2023-05-15T15:30:33.592Z,18.75
2023-05-15T15:34:52.347Z,19.25
2023-05-15T15:39:11.668Z,19.26
2023-05-15T15:43:29.364Z,19.53
2023-05-15T15:47:47.016Z,19.46
2023-05-15T15:52:08.622Z,19.13
2023-05-15T15:56:28.850Z,18.80
2023-05-15T16:00:49.724Z,18.74
2023-05-15T16:05:08.081Z,18.89
2023-05-15T16:09:25.840Z,19.00
2023-05-15T16:13:43.187Z,18.88
2023-05-15T16:18:01.541Z,18.73
2023-05-15T16:22:19.105Z,18.72
2023-05-15T16:26:38.308Z,18.69
2023-05-15T16:30:56.554Z,18.79
2023-05-15T16:35:14.387Z,18.92
2023-05-15T16:39:38.879Z,18.69
2023-05-15T16:43:57.226Z,18.68
2023-05-15T16:48:14.826Z,18.73
2023-05-15T16:52:32.535Z,18.79
2023-05-15T16:56:50.094Z,18.69
2023-05-15T17:01:08.051Z,18.65
2023-05-15T17:05:25.896Z,18.55
2023-05-15T17:09:44.901Z,18.38
2023-05-15T17:14:02.549Z,18.41
2023-05-15T17:18:20.377Z,18.35
2023-05-15T17:22:37.976Z,18.38
2023-05-15T17:26:55.945Z,18.28
2023-05-15T17:31:13.495Z,18.30
2023-05-15T17:35:32.973Z,18.22
2023-05-15T17:39:51.499Z,18.37
2023-05-15T17:44:09.415Z,18.34
2023-05-15T17:48:27.418Z,18.27
2023-05-15T17:52:44.934Z,18.10
2023-05-15T17:57:02.817Z,18.23
2023-05-15T18:01:21.580Z,18.35
2023-05-15T18:05:39.322Z,18.22
2023-05-15T18:09:56.912Z,18.17
2023-05-15T18:14:14.625Z,18.15
2023-05-15T18:18:32.181Z,18.16
2023-05-15T18:22:51.041Z,18.27
2023-05-15T18:27:08.608Z,18.18
2023-05-15T18:31:26.670Z,18.09
2023-05-15T18:35:44.333Z,18.04
2023-05-15T18:40:02.085Z,18.06
2023-05-15T18:44:20.933Z,18.22
2023-05-15T18:48:38.429Z,18.23
2023-05-15T18:52:56.029Z,18.11
2023-05-15T18:57:14.651Z,18.09
2023-05-15T19:01:32.551Z,18.13
2023-05-15T19:05:50.454Z,18.17
2023-05-15T19:10:09.208Z,18.10
2023-05-15T19:14:27.289Z,18.10
2023-05-15T19:18:45.014Z,18.12
2023-05-15T19:23:03.798Z,18.19
2023-05-15T19:27:21.411Z,18.20
2023-05-15T19:31:39.968Z,18.14
2023-05-15T19:35:57.842Z,18.11
2023-05-15T19:40:15.832Z,18.07
2023-05-15T19:44:33.526Z,18.04
2023-05-15T19:48:53.699Z,18.09
2023-05-15T19:53:12.465Z,18.14
2023-05-15T19:57:30.067Z,18.10
2023-05-15T20:01:47.765Z,18.04
2023-05-15T20:06:05.399Z,17.99
2023-05-15T20:10:23.524Z,18.12
2023-05-15T20:14:42.146Z,18.14
2023-05-15T20:19:02.930Z,18.06
2023-05-15T20:23:21.591Z,18.03
2023-05-15T20:27:39.216Z,18.10
2023-05-15T20:31:57.587Z,18.10
2023-05-15T20:36:16.853Z,18.05
2023-05-15T20:40:34.754Z,18.00
2023-05-15T20:44:52.384Z,17.98
2023-05-15T20:49:10.055Z,18.04
2023-05-15T20:53:28.987Z,18.03
2023-05-15T20:57:48.612Z,18.02
2023-05-15T21:02:06.332Z,17.97
2023-05-15T21:06:24.142Z,17.96
2023-05-15T21:10:42.130Z,17.94
2023-05-15T21:14:59.909Z,17.87
2023-05-15T21:19:17.628Z,17.78
2023-05-15T21:23:36.792Z,17.88
2023-05-15T21:27:54.977Z,17.88
2023-05-15T21:32:12.571Z,17.77
2023-05-15T21:36:30.232Z,17.74
2023-05-15T21:40:47.864Z,17.82
2023-05-15T21:45:06.981Z,17.83
2023-05-15T21:49:24.993Z,17.81
2023-05-15T21:53:42.748Z,17.74
2023-05-15T21:58:00.246Z,17.78
2023-05-15T22:02:17.895Z,17.81
2023-05-15T22:06:35.815Z,17.71
2023-05-15T22:10:53.845Z,17.69
2023-05-15T22:15:13.001Z,17.71
2023-05-15T22:19:33.464Z,17.80
2023-05-15T22:23:51.439Z,17.73
2023-05-15T22:28:09.212Z,17.65
2023-05-15T22:32:27.642Z,17.72
2023-05-15T22:36:48.100Z,17.76
2023-05-15T22:41:06.756Z,17.64
2023-05-15T22:45:25.068Z,17.57
2023-05-15T22:49:42.827Z,17.70
2023-05-15T22:54:02.899Z,17.56
2023-05-15T22:58:20.478Z,17.59
2023-05-15T23:02:38.693Z,17.59
2023-05-15T23:06:56.356Z,17.59
2023-05-15T23:11:13.962Z,17.61
2023-05-15T23:15:31.526Z,17.53
2023-05-15T23:19:49.696Z,17.51
2023-05-15T23:24:07.277Z,17.51
2023-05-15T23:28:25.097Z,17.42
2023-05-15T23:32:42.614Z,17.36
2023-05-15T23:37:00.256Z,17.49
2023-05-15T23:41:17.887Z,17.41
2023-05-15T23:45:35.626Z,17.29
2023-05-15T23:49:53.146Z,17.37
2023-05-15T23:54:11.974Z,17.37
2023-05-15T23:58:29.492Z,17.26
